2V6

Yuma Municipalcipal Airport

Yuma, Colorado, USA
METAR K2V6 250044Z AUTO 05007KT 10SM -RA SCT041 SCT060 BKN080 15/02 A2991 RMK AO2
Observed Flight Rules
Sep-25 @ 00:44 UTC (46 minutes ago) Visual Flight Rules
Wind Visibility Clouds Conditions
50° at 7 knots 10 miles
  • Scattered at 4,100' AGL
  • Scattered at 6,000' AGL
  • Broken at 8,000' AGL
  • Light Rain
Temperatures Readings
Current 15°C / 59°F
Dewpoint 2°C / 36°F
Humidity 42%
Altimeter 29.91" Hg
Pressure 1013 hPa
Elevation 1261
METAR K2V6 250044Z AUTO 05007KT 10SM -RA SCT041 SCT060 BKN080 15/02 A2991 RMK AO2
Observed Flight Rules
Sep-25 @ 00:44 UTC
(46 minutes ago)
VFR
Wind Visibility
50° at 7 knots 10 miles
Clouds
  • Scattered at 4,100' AGL
  • Scattered at 6,000' AGL
  • Broken at 8,000' AGL
Conditions
  • Light Rain
Temperature Dewpoint
15°C / 59°F 2°C / 36°F
Humidity Altimeter Pressure
42% 29.91" Hg 1013 hPa